Time;durP1;ratioP1;P1;durP2;ratioP2;P2;SDS_P1;SDS_P2;PMS_P1;PMS_P2;Temp;Humidity;BMP_temperature;BMP_pressure;BME280_temperature;BME280_humidity;BME280_pressure;Samples;Min_cycle;Max_cycle;Signal;HPM_P1;HPM_P2
2021/01/03 00:00:24;;;;;;;24.63;16.80;;;3.00;82.00;;;;;;5033946;28;20037;-65
2021/01/03 00:02:51;;;;;;;27.17;16.77;;;2.90;82.10;;;;;;5046091;28;20038;-66
2021/01/03 00:05:21;;;;;;;24.20;18.05;;;3.00;81.80;;;;;;5034142;28;20037;-65
2021/01/03 00:07:46;;;;;;;26.75;17.17;;;3.00;81.90;;;;;;5044282;28;20510;-64
2021/01/03 00:10:12;;;;;;;24.17;16.65;;;2.90;82.10;;;;;;5035351;28;20041;-63
2021/01/03 00:12:39;;;;;;;25.15;17.83;;;2.90;82.50;;;;;;5034574;28;20028;-64
2021/01/03 00:15:12;;;;;;;26.85;18.33;;;2.90;82.60;;;;;;5041359;28;20025;-65
2021/01/03 00:17:39;;;;;;;27.55;18.23;;;2.90;82.70;;;;;;5022482;28;20026;-63
2021/01/03 00:20:07;;;;;;;24.40;17.83;;;2.80;82.90;;;;;;5018886;28;20049;-62
2021/01/03 00:22:33;;;;;;;27.85;19.30;;;2.80;82.90;;;;;;5046663;28;20025;-62
2021/01/03 00:24:59;;;;;;;24.90;18.02;;;2.90;82.80;;;;;;5047144;28;20397;-63
2021/01/03 00:27:24;;;;;;;28.05;18.42;;;2.90;82.80;;;;;;5048806;28;20051;-62
2021/01/03 00:29:50;;;;;;;29.02;19.48;;;3.00;82.80;;;;;;5038629;28;20116;-63
2021/01/03 00:32:16;;;;;;;29.30;20.67;;;3.00;82.60;;;;;;5032701;28;20033;-62
2021/01/03 00:34:41;;;;;;;31.05;21.05;;;2.90;83.00;;;;;;5019257;28;20381;-62
2021/01/03 00:37:07;;;;;;;28.73;19.65;;;2.90;83.50;;;;;;5038021;28;20115;-63
2021/01/03 00:39:33;;;;;;;35.10;22.52;;;2.70;84.10;;;;;;5037856;28;20159;-62
2021/01/03 00:41:58;;;;;;;28.58;20.17;;;2.80;83.90;;;;;;5029683;28;20342;-64
2021/01/03 00:44:24;;;;;;;29.30;20.33;;;2.80;84.00;;;;;;5045005;28;20103;-64
2021/01/03 00:46:49;;;;;;;28.30;20.08;;;2.70;84.20;;;;;;5034648;28;20041;-63
2021/01/03 00:49:15;;;;;;;29.10;19.33;;;2.70;84.90;;;;;;5010009;28;20044;-64
2021/01/03 00:51:41;;;;;;;29.25;20.55;;;2.70;84.20;;;;;;5030319;28;20049;-59
2021/01/03 00:54:06;;;;;;;30.08;20.48;;;2.70;84.30;;;;;;5020536;28;20478;-60
2021/01/03 00:56:32;;;;;;;32.13;21.30;;;2.70;84.20;;;;;;5024463;28;20060;-58
2021/01/03 00:58:57;;;;;;;29.65;21.00;;;2.80;83.90;;;;;;5025628;28;20075;-59
2021/01/03 01:01:23;;;;;;;29.75;20.88;;;2.80;84.20;;;;;;5023383;28;20423;-60
2021/01/03 01:03:49;;;;;;;32.58;22.10;;;2.70;84.00;;;;;;5022562;28;20534;-54
2021/01/03 01:06:15;;;;;;;32.75;21.75;;;2.70;84.40;;;;;;5026028;28;20087;-57
2021/01/03 01:08:40;;;;;;;30.05;21.98;;;2.70;84.30;;;;;;5028738;28;20410;-57
2021/01/03 01:11:07;;;;;;;32.13;22.23;;;2.70;84.60;;;;;;5027936;28;20038;-57
2021/01/03 01:13:34;;;;;;;34.00;22.35;;;2.60;85.00;;;;;;5028697;28;20033;-57
2021/01/03 01:16:00;;;;;;;37.33;23.08;;;2.50;85.20;;;;;;5026191;28;20053;-57
2021/01/03 01:18:26;;;;;;;34.47;23.50;;;2.60;85.60;;;;;;5027082;28;20046;-60
2021/01/03 01:20:51;;;;;;;33.92;23.02;;;2.60;86.00;;;;;;5025705;28;20037;-57
2021/01/03 01:23:17;;;;;;;34.13;22.60;;;2.60;85.20;;;;;;5026409;28;20030;-60
2021/01/03 01:25:42;;;;;;;34.92;23.35;;;2.60;85.60;;;;;;5024447;28;20034;-60
2021/01/03 01:28:08;;;;;;;35.65;23.45;;;2.50;85.60;;;;;;5028115;28;20037;-59
2021/01/03 01:30:34;;;;;;;35.17;23.35;;;2.50;85.80;;;;;;5010407;28;20484;-58
2021/01/03 01:33:01;;;;;;;32.30;22.77;;;2.50;86.00;;;;;;5027570;28;20550;-59
2021/01/03 01:35:29;;;;;;;36.60;24.42;;;2.50;85.90;;;;;;5026412;28;20500;-58
2021/01/03 01:37:57;;;;;;;35.33;23.33;;;2.50;85.90;;;;;;5026336;28;20045;-58
2021/01/03 01:40:26;;;;;;;35.45;24.25;;;2.50;86.00;;;;;;5030953;28;20017;-57
2021/01/03 01:42:52;;;;;;;36.92;23.38;;;2.60;85.90;;;;;;5029797;28;20032;-57
2021/01/03 01:45:24;;;;;;;33.55;22.98;;;2.50;86.10;;;;;;5027755;28;20034;-56
2021/01/03 01:47:55;;;;;;;35.58;24.92;;;2.60;86.10;;;;;;5028366;28;20037;-57
2021/01/03 01:50:33;;;;;;;36.95;23.98;;;2.50;86.30;;;;;;5026568;28;20116;-59
2021/01/03 01:52:59;;;;;;;38.65;25.52;;;2.50;86.40;;;;;;5030863;28;20056;-57
2021/01/03 01:55:32;;;;;;;34.20;24.08;;;2.50;86.40;;;;;;5030301;28;20026;-57
2021/01/03 01:58:17;;;;;;;38.88;25.35;;;2.50;86.40;;;;;;5030835;28;20026;-60
2021/01/03 02:00:50;;;;;;;37.88;24.42;;;2.40;86.80;;;;;;5030871;28;20026;-60
2021/01/03 02:03:24;;;;;;;39.75;25.63;;;2.30;87.20;;;;;;5026855;28;20032;-56
2021/01/03 02:05:59;;;;;;;39.30;24.40;;;2.30;87.20;;;;;;5024570;28;20083;-57
2021/01/03 02:08:48;;;;;;;38.97;25.13;;;2.30;87.20;;;;;;5027842;28;20670;-55
2021/01/03 02:11:23;;;;;;;39.35;25.92;;;2.30;86.70;;;;;;5025246;28;20049;-55
2021/01/03 02:13:52;;;;;;;37.03;24.65;;;2.30;87.10;;;;;;5023285;28;20031;-57
2021/01/03 02:16:22;;;;;;;38.60;24.88;;;2.40;86.70;;;;;;5023269;28;20108;-57
2021/01/03 02:18:50;;;;;;;37.15;24.05;;;2.40;86.60;;;;;;5023118;28;20041;-57
2021/01/03 02:21:28;;;;;;;38.15;25.00;;;2.50;86.50;;;;;;5023944;28;20021;-57
2021/01/03 02:24:23;;;;;;;41.45;25.60;;;2.50;86.40;;;;;;5024865;28;20117;-58
2021/01/03 02:26:55;;;;;;;41.30;25.92;;;2.40;86.60;;;;;;5024272;28;20033;-58
2021/01/03 02:29:24;;;;;;;39.95;25.13;;;2.50;86.40;;;;;;5023163;28;20114;-57
2021/01/03 02:31:54;;;;;;;42.00;26.10;;;2.40;86.50;;;;;;5022213;28;20025;-60
2021/01/03 02:34:32;;;;;;;37.88;24.88;;;2.40;87.00;;;;;;5024320;28;20095;-59
2021/01/03 02:37:18;;;;;;;42.97;27.17;;;2.50;86.70;;;;;;5022491;28;20031;-59
2021/01/03 02:39:53;;;;;;;42.47;26.10;;;2.40;86.80;;;;;;5020586;28;20034;-60
2021/01/03 02:42:26;;;;;;;40.25;25.33;;;2.40;86.80;;;;;;5021303;28;20022;-58
2021/01/03 02:44:53;;;;;;;40.25;26.10;;;2.40;86.90;;;;;;5019850;28;20033;-61
2021/01/03 02:47:24;;;;;;;37.25;25.15;;;2.50;86.30;;;;;;5021532;28;20028;-58
2021/01/03 02:49:50;;;;;;;43.05;27.02;;;2.50;86.30;;;;;;5020452;28;20026;-57
2021/01/03 02:52:23;;;;;;;40.40;25.80;;;2.50;86.50;;;;;;5023379;28;20033;-58
2021/01/03 02:54:50;;;;;;;39.72;26.30;;;2.50;86.60;;;;;;5022450;28;20080;-57
2021/01/03 02:57:16;;;;;;;46.72;27.23;;;2.40;86.80;;;;;;5024032;28;20431;-58
2021/01/03 02:59:42;;;;;;;41.10;26.58;;;2.30;87.10;;;;;;5021706;28;20029;-59
2021/01/03 03:02:07;;;;;;;40.85;25.92;;;2.30;87.50;;;;;;5022418;28;20412;-58
2021/01/03 03:04:33;;;;;;;39.75;26.23;;;2.20;87.50;;;;;;5015411;28;20034;-57
2021/01/03 03:06:58;;;;;;;42.97;26.95;;;2.20;87.90;;;;;;5034705;28;20129;-54
2021/01/03 03:09:24;;;;;;;46.25;28.70;;;2.20;88.40;;;;;;5032068;28;20033;-58
2021/01/03 03:11:50;;;;;;;38.88;25.40;;;2.20;87.50;;;;;;5041605;28;20075;-58
2021/01/03 03:14:15;;;;;;;42.70;27.30;;;2.20;87.80;;;;;;5042370;28;20120;-59
2021/01/03 03:16:41;;;;;;;38.22;24.13;;;2.20;87.80;;;;;;5018103;28;20041;-59
2021/01/03 03:19:07;;;;;;;39.67;25.23;;;2.20;87.80;;;;;;5020872;28;20786;-60
2021/01/03 03:21:32;;;;;;;40.42;25.90;;;2.30;87.00;;;;;;5032113;28;20034;-60
2021/01/03 03:23:58;;;;;;;42.40;26.08;;;2.30;87.30;;;;;;5024707;28;20100;-57
2021/01/03 03:26:24;;;;;;;39.30;26.27;;;2.20;87.30;;;;;;5016765;28;20396;-60
2021/01/03 03:28:49;;;;;;;44.30;26.92;;;2.20;87.60;;;;;;5013844;28;20030;-59
2021/01/03 03:31:15;;;;;;;39.35;25.60;;;2.30;87.30;;;;;;5023525;28;20053;-58
2021/01/03 03:33:41;;;;;;;41.72;26.02;;;2.40;86.70;;;;;;5012339;28;20099;-57
2021/01/03 03:36:07;;;;;;;42.58;25.98;;;2.30;87.20;;;;;;5025502;28;20046;-61
2021/01/03 03:38:32;;;;;;;42.40;26.77;;;2.30;87.30;;;;;;5026883;28;20038;-61
2021/01/03 03:40:58;;;;;;;37.83;24.40;;;2.20;88.00;;;;;;5032508;28;20069;-61
2021/01/03 03:43:23;;;;;;;44.42;26.80;;;2.10;88.20;;;;;;5032036;28;20392;-60
2021/01/03 03:45:49;;;;;;;43.15;28.10;;;2.30;88.10;;;;;;5032201;28;20442;-62
2021/01/03 03:48:14;;;;;;;40.88;26.23;;;2.10;88.70;;;;;;5031273;28;20052;-61
2021/01/03 03:50:40;;;;;;;43.05;26.42;;;2.10;89.20;;;;;;5015170;28;20127;-60
2021/01/03 03:53:06;;;;;;;37.58;24.98;;;2.20;89.20;;;;;;5017824;28;20511;-61
2021/01/03 03:55:31;;;;;;;40.97;25.42;;;2.10;89.20;;;;;;5019807;28;20084;-62
2021/01/03 03:57:57;;;;;;;39.78;25.92;;;2.10;89.20;;;;;;5012809;28;20034;-61
2021/01/03 04:00:24;;;;;;;43.38;27.02;;;2.10;89.60;;;;;;5011710;28;20038;-59
2021/01/03 04:02:50;;;;;;;43.13;27.02;;;2.10;89.40;;;;;;5009166;28;20493;-61
2021/01/03 04:05:22;;;;;;;43.03;26.25;;;2.10;89.60;;;;;;5016951;28;20037;-61
2021/01/03 04:07:48;;;;;;;44.83;28.30;;;2.10;89.70;;;;;;5025038;28;20014;-61
2021/01/03 04:10:15;;;;;;;46.22;27.17;;;2.00;90.10;;;;;;5018418;28;20033;-61
2021/01/03 04:12:41;;;;;;;41.13;26.10;;;2.00;90.10;;;;;;5031029;28;20576;-60
2021/01/03 04:15:09;;;;;;;42.42;24.73;;;2.00;90.20;;;;;;5030841;28;20077;-59
2021/01/03 04:17:35;;;;;;;41.95;26.10;;;2.10;90.00;;;;;;5020763;28;20100;-60
2021/01/03 04:20:00;;;;;;;39.00;25.10;;;2.10;89.90;;;;;;5026600;28;20037;-59
2021/01/03 04:22:29;;;;;;;44.10;26.80;;;2.10;90.00;;;;;;5023918;28;20496;-60
2021/01/03 04:24:56;;;;;;;41.45;26.35;;;2.10;90.00;;;;;;5020912;28;20087;-60
2021/01/03 04:27:21;;;;;;;47.53;28.52;;;1.90;90.20;;;;;;5020141;28;20093;-61
2021/01/03 04:29:47;;;;;;;45.35;27.55;;;2.00;90.20;;;;;;5020957;28;20041;-58
2021/01/03 04:32:12;;;;;;;43.60;26.77;;;1.90;90.40;;;;;;5023417;28;20034;-60
2021/01/03 04:34:39;;;;;;;44.97;25.80;;;1.90;90.40;;;;;;5029804;28;20053;-60
2021/01/03 04:37:06;;;;;;;44.70;26.65;;;1.90;90.50;;;;;;5026455;28;20018;-60
2021/01/03 04:39:32;;;;;;;46.63;27.67;;;1.90;90.50;;;;;;5030330;28;20105;-62
2021/01/03 04:42:02;;;;;;;44.45;27.38;;;1.80;90.40;;;;;;5035425;28;20068;-61
2021/01/03 04:44:34;;;;;;;44.63;27.13;;;1.70;90.80;;;;;;5031399;28;20033;-61
2021/01/03 04:47:37;;;;;;;46.90;27.52;;;1.70;90.70;;;;;;5029554;28;20042;-62
2021/01/03 04:50:21;;;;;;;43.95;27.23;;;1.80;90.70;;;;;;5018510;28;20109;-61
2021/01/03 04:53:16;;;;;;;49.65;27.75;;;1.80;90.70;;;;;;5018995;28;20041;-61
2021/01/03 04:55:50;;;;;;;43.10;26.92;;;1.70;90.90;;;;;;5015134;28;20056;-61
2021/01/03 04:58:43;;;;;;;45.78;26.50;;;1.70;90.60;;;;;;5038229;28;20053;-61
2021/01/03 05:01:42;;;;;;;43.55;26.30;;;1.70;90.90;;;;;;5031545;28;20033;-60
2021/01/03 05:04:32;;;;;;;46.88;25.80;;;1.60;90.90;;;;;;5018417;28;20440;-61
2021/01/03 05:07:02;;;;;;;40.95;26.05;;;1.60;91.00;;;;;;5038171;28;20069;-61
2021/01/03 05:09:28;;;;;;;45.47;27.27;;;1.60;90.90;;;;;;5037241;28;20527;-61
2021/01/03 05:12:19;;;;;;;45.88;27.15;;;1.60;91.00;;;;;;5037641;28;20057;-62
2021/01/03 05:14:53;;;;;;;42.20;24.70;;;1.50;91.10;;;;;;5034153;28;20026;-60
2021/01/03 05:17:20;;;;;;;47.50;28.55;;;1.50;91.30;;;;;;5016448;28;20061;-60
2021/01/03 05:19:46;;;;;;;44.80;26.75;;;1.50;91.30;;;;;;5027099;28;20047;-58
2021/01/03 05:22:36;;;;;;;44.92;27.17;;;1.60;91.10;;;;;;5037779;28;20053;-60
2021/01/03 05:25:04;;;;;;;43.60;26.27;;;1.60;91.20;;;;;;5024941;28;20125;-60
2021/01/03 05:27:30;;;;;;;41.65;24.95;;;1.60;91.20;;;;;;5018033;28;20022;-61
2021/01/03 05:30:14;;;;;;;41.10;26.60;;;1.60;91.30;;;;;;5028822;28;20170;-59
2021/01/03 05:32:39;;;;;;;49.22;27.60;;;1.60;91.20;;;;;;5037745;28;20088;-60
2021/01/03 05:35:27;;;;;;;45.13;28.40;;;1.60;91.40;;;;;;5025108;28;20057;-60
2021/01/03 05:37:56;;;;;;;43.95;26.58;;;1.60;91.30;;;;;;5017730;28;20112;-59
2021/01/03 05:40:32;;;;;;;41.92;25.27;;;1.60;91.20;;;;;;5023631;28;20416;-60
2021/01/03 05:43:09;;;;;;;44.63;26.35;;;1.60;91.20;;;;;;5019371;28;20033;-60
2021/01/03 05:45:41;;;;;;;38.38;25.25;;;1.70;91.10;;;;;;5019616;28;20037;-59
2021/01/03 05:48:16;;;;;;;41.80;25.23;;;1.70;90.80;;;;;;5034071;28;20079;-59
2021/01/03 05:50:42;;;;;;;37.55;22.98;;;1.70;91.10;;;;;;5036242;28;20120;-58
2021/01/03 05:53:16;;;;;;;37.72;23.00;;;1.60;91.20;;;;;;5036187;28;20076;-60
2021/01/03 05:55:51;;;;;;;37.90;22.30;;;1.70;91.00;;;;;;5036889;28;20037;-60
2021/01/03 05:58:26;;;;;;;37.15;23.38;;;1.70;90.80;;;;;;5024526;28;20080;-59
2021/01/03 06:00:54;;;;;;;34.30;20.48;;;1.70;90.90;;;;;;5017696;28;20037;-59
2021/01/03 06:03:21;;;;;;;36.80;21.17;;;1.70;91.00;;;;;;5027676;28;20492;-60
2021/01/03 06:05:55;;;;;;;35.80;21.92;;;1.60;91.00;;;;;;5032428;28;20065;-59
2021/01/03 06:08:22;;;;;;;36.20;21.25;;;1.70;91.00;;;;;;5033992;28;20558;-61
2021/01/03 06:10:49;;;;;;;35.25;21.83;;;1.70;90.90;;;;;;5033437;28;20045;-61
2021/01/03 06:13:17;;;;;;;31.75;19.77;;;1.70;91.10;;;;;;5033027;28;20040;-59
2021/01/03 06:15:54;;;;;;;29.63;19.33;;;1.80;90.90;;;;;;5031883;28;20133;-61
2021/01/03 06:18:41;;;;;;;30.55;19.10;;;1.80;90.80;;;;;;5034272;28;20033;-60
2021/01/03 06:21:34;;;;;;;29.30;18.85;;;1.70;90.80;;;;;;5014938;28;20034;-61
2021/01/03 06:24:18;;;;;;;30.80;19.20;;;1.70;91.00;;;;;;5017498;28;20041;-62
2021/01/03 06:26:49;;;;;;;32.40;20.55;;;1.70;91.00;;;;;;5033325;28;20107;-62
2021/01/03 06:29:49;;;;;;;33.92;20.85;;;1.70;91.00;;;;;;5028472;28;20042;-61
2021/01/03 06:32:47;;;;;;;29.90;20.13;;;1.70;91.00;;;;;;5014952;28;20050;-61
2021/01/03 06:35:41;;;;;;;33.35;21.20;;;1.60;91.00;;;;;;5028312;28;20037;-64
2021/01/03 06:38:30;;;;;;;34.25;20.38;;;1.60;91.10;;;;;;5037345;28;20026;-65
2021/01/03 06:41:12;;;;;;;31.13;20.50;;;1.60;91.10;;;;;;5026394;28;20025;-62
2021/01/03 06:43:44;;;;;;;33.20;21.05;;;1.60;91.30;;;;;;5033867;28;20060;-62
2021/01/03 06:46:41;;;;;;;32.80;20.90;;;1.60;91.30;;;;;;5043942;28;20133;-62
2021/01/03 06:49:39;;;;;;;29.90;20.77;;;1.60;91.20;;;;;;5037889;28;20048;-62
2021/01/03 06:52:16;;;;;;;32.10;20.58;;;1.70;91.00;;;;;;5011183;28;20049;-62
2021/01/03 06:55:20;;;;;;;28.90;19.77;;;1.60;91.00;;;;;;5033284;28;20033;-62
2021/01/03 06:58:16;;;;;;;30.27;20.75;;;1.70;90.80;;;;;;5023061;28;20049;-62
2021/01/03 07:00:43;;;;;;;28.27;19.98;;;1.60;91.20;;;;;;5013248;28;20033;-60
2021/01/03 07:03:49;;;;;;;28.15;19.60;;;1.70;91.00;;;;;;5016358;28;20091;-61
2021/01/03 07:06:14;;;;;;;;;;;1.60;91.10;;;;;;4956795;28;20097;-62
2021/01/03 07:08:47;;;;;;;28.70;19.52;;;1.60;91.20;;;;;;4971831;28;19914;-61
2021/01/03 07:11:51;;;;;;;29.42;19.58;;;1.70;91.20;;;;;;5003206;28;20041;-62
2021/01/03 07:14:22;;;;;;;27.40;19.52;;;1.60;91.10;;;;;;5032983;28;20384;-62
2021/01/03 07:17:12;;;;;;;27.13;19.63;;;1.60;91.40;;;;;;5026073;28;20493;-61
2021/01/03 07:19:43;;;;;;;27.23;18.52;;;1.50;91.30;;;;;;5013933;28;20493;-62
2021/01/03 07:22:19;;;;;;;25.23;18.90;;;1.50;91.60;;;;;;5013175;28;20492;-62
2021/01/03 07:24:51;;;;;;;25.63;18.38;;;1.50;91.60;;;;;;5014245;28;20038;-61
2021/01/03 07:27:43;;;;;;;24.55;18.00;;;1.50;91.60;;;;;;5013444;28;20133;-61
2021/01/03 07:30:08;;;;;;;26.50;19.55;;;1.50;91.50;;;;;;5013464;28;20030;-60
2021/01/03 07:32:37;;;;;;;27.15;18.48;;;1.60;91.40;;;;;;5018433;28;20373;-61
2021/01/03 07:35:27;;;;;;;27.40;20.00;;;1.60;91.30;;;;;;5011723;28;20034;-61
2021/01/03 07:38:23;;;;;;;23.80;17.88;;;1.50;91.50;;;;;;5028328;28;20069;-61
2021/01/03 07:41:04;;;;;;;26.83;17.90;;;1.60;91.40;;;;;;5017597;28;20119;-61
2021/01/03 07:43:50;;;;;;;22.52;17.30;;;1.60;91.10;;;;;;5032618;28;20135;-62
2021/01/03 07:46:38;;;;;;;23.67;16.50;;;1.70;91.10;;;;;;5026695;28;20034;-61
2021/01/03 07:49:24;;;;;;;23.98;16.67;;;1.60;91.10;;;;;;5027534;28;20045;-59
2021/01/03 07:51:49;;;;;;;24.27;18.33;;;1.60;91.30;;;;;;5025145;28;20041;-60
2021/01/03 07:54:15;;;;;;;23.27;17.55;;;1.60;91.40;;;;;;5034296;28;20041;-62
2021/01/03 07:56:41;;;;;;;22.42;16.83;;;1.50;91.50;;;;;;5025202;28;20129;-63
2021/01/03 07:59:06;;;;;;;20.40;16.42;;;1.50;91.50;;;;;;5015729;28;20037;-61
2021/01/03 08:01:38;;;;;;;23.80;17.40;;;1.50;91.30;;;;;;5031514;28;20034;-62
2021/01/03 08:04:20;;;;;;;23.13;17.00;;;1.50;91.40;;;;;;5032572;28;20038;-62
2021/01/03 08:06:46;;;;;;;21.13;17.20;;;1.40;91.50;;;;;;5033259;28;20511;-62
2021/01/03 08:09:28;;;;;;;22.83;16.85;;;1.50;91.30;;;;;;5034270;28;20486;-63
2021/01/03 08:12:06;;;;;;;22.15;15.73;;;1.50;91.40;;;;;;5032601;28;20044;-63
2021/01/03 08:14:34;;;;;;;22.25;16.35;;;1.60;91.40;;;;;;5030386;28;20112;-61
2021/01/03 08:17:01;;;;;;;22.17;16.80;;;1.60;91.40;;;;;;5014046;28;20030;-63
2021/01/03 08:19:28;;;;;;;20.58;16.38;;;1.60;91.40;;;;;;5018273;28;20120;-62
2021/01/03 08:21:57;;;;;;;24.33;17.10;;;1.60;91.40;;;;;;5036068;28;20042;-63
2021/01/03 08:24:24;;;;;;;18.75;14.38;;;1.60;91.40;;;;;;5033477;28;20025;-63
2021/01/03 08:26:56;;;;;;;18.42;14.75;;;1.70;91.20;;;;;;5031706;28;20405;-61
2021/01/03 08:29:37;;;;;;;18.17;14.25;;;1.70;91.00;;;;;;5014261;28;20046;-62
2021/01/03 08:32:20;;;;;;;17.80;13.85;;;1.80;91.10;;;;;;5012528;28;20029;-61
2021/01/03 08:34:45;;;;;;;14.93;12.80;;;1.70;91.10;;;;;;5020755;28;20029;-62
2021/01/03 08:37:24;;;;;;;18.35;13.30;;;1.70;91.00;;;;;;5011774;28;20041;-62
2021/01/03 08:39:52;;;;;;;19.27;15.23;;;1.80;91.00;;;;;;5023509;28;20048;-62
2021/01/03 08:42:42;;;;;;;19.50;15.27;;;1.70;91.10;;;;;;5031668;28;20557;-62
2021/01/03 08:45:14;;;;;;;19.92;14.35;;;1.70;91.20;;;;;;5010733;28;20121;-62
2021/01/03 08:47:41;;;;;;;19.27;14.40;;;1.80;91.00;;;;;;5013762;28;20034;-62
2021/01/03 08:50:15;;;;;;;16.77;14.05;;;1.80;91.10;;;;;;5013496;28;20108;-61
2021/01/03 08:52:40;;;;;;;17.50;14.02;;;1.80;91.10;;;;;;5013014;28;20033;-62
2021/01/03 08:55:18;;;;;;;17.98;14.02;;;1.90;90.90;;;;;;5030501;28;20504;-60
2021/01/03 08:57:44;;;;;;;18.92;13.68;;;1.90;90.70;;;;;;5012785;28;20038;-61
2021/01/03 09:00:19;;;;;;;19.52;14.77;;;1.90;90.80;;;;;;5012299;28;20087;-61
2021/01/03 09:02:47;;;;;;;14.45;12.35;;;1.90;90.70;;;;;;5029466;28;20048;-62
2021/01/03 09:05:16;;;;;;;14.80;12.15;;;1.90;90.60;;;;;;5030562;28;20065;-62
2021/01/03 09:07:43;;;;;;;14.52;12.90;;;2.10;90.40;;;;;;5031604;28;20128;-63
2021/01/03 09:10:18;;;;;;;17.17;13.15;;;2.10;90.20;;;;;;5031333;28;20052;-61
2021/01/03 09:12:45;;;;;;;19.67;15.27;;;2.10;90.30;;;;;;5031967;28;20029;-62
2021/01/03 09:15:24;;;;;;;15.68;13.23;;;2.00;90.50;;;;;;5031811;28;20022;-62
2021/01/03 09:18:36;;;;;;;18.05;14.60;;;2.10;90.30;;;;;;5033470;28;20038;-62
2021/01/03 09:21:12;;;;;;;18.50;14.65;;;2.00;90.30;;;;;;5014005;28;20057;-62
2021/01/03 09:23:41;;;;;;;18.15;13.98;;;2.00;90.60;;;;;;5033260;28;20044;-62
2021/01/03 09:26:11;;;;;;;34.65;14.82;;;2.10;90.50;;;;;;5039575;28;20109;-62
2021/01/03 09:28:40;;;;;;;18.75;13.93;;;2.10;90.40;;;;;;5034920;28;20060;-62
2021/01/03 09:31:25;;;;;;;20.17;15.82;;;2.10;90.10;;;;;;5016243;28;20038;-60
2021/01/03 09:33:54;;;;;;;16.40;13.98;;;2.10;90.30;;;;;;5016550;28;20042;-61
2021/01/03 09:36:33;;;;;;;16.63;13.05;;;2.10;90.20;;;;;;5015408;28;20034;-61
2021/01/03 09:39:22;;;;;;;16.02;13.05;;;2.20;90.00;;;;;;5031925;28;20029;-60
2021/01/03 09:42:36;;;;;;;16.67;12.77;;;2.10;90.30;;;;;;5022456;28;20029;-61
2021/01/03 09:45:27;;;;;;;19.05;12.68;;;2.00;90.40;;;;;;4991072;28;20043;-62
2021/01/03 09:47:52;;;;;;;16.20;11.95;;;2.00;90.30;;;;;;5047103;28;20033;-61
2021/01/03 09:50:30;;;;;;;12.43;11.13;;;2.10;90.40;;;;;;5045414;28;20037;-63
2021/01/03 09:53:11;;;;;;;15.13;12.18;;;2.10;90.20;;;;;;5031202;28;20038;-63
2021/01/03 09:55:45;;;;;;;14.45;11.23;;;2.00;90.60;;;;;;5019080;28;20032;-62
2021/01/03 09:58:11;;;;;;;15.33;11.53;;;1.90;90.50;;;;;;5030045;28;20493;-61
2021/01/03 10:00:55;;;;;;;13.68;11.65;;;1.90;90.50;;;;;;5027314;28;20033;-61
2021/01/03 10:03:40;;;;;;;13.40;11.32;;;2.00;90.40;;;;;;5015156;28;20493;-63
2021/01/03 10:06:22;;;;;;;13.55;11.32;;;2.00;90.40;;;;;;5015234;28;20088;-62
2021/01/03 10:08:49;;;;;;;14.75;11.23;;;2.00;90.50;;;;;;5026734;28;20048;-62
2021/01/03 10:11:29;;;;;;;12.30;10.57;;;2.00;90.80;;;;;;5033219;28;20026;-62
2021/01/03 10:13:58;;;;;;;15.10;11.45;;;2.10;90.20;;;;;;5032658;28;20033;-63
2021/01/03 10:16:27;;;;;;;14.95;11.70;;;2.10;90.20;;;;;;5034691;28;20124;-64
2021/01/03 10:18:56;;;;;;;14.00;11.55;;;2.10;90.10;;;;;;5030759;28;20033;-63
2021/01/03 10:21:42;;;;;;;16.45;12.52;;;2.10;90.30;;;;;;5031267;28;20037;-64
2021/01/03 10:24:19;;;;;;;15.45;11.93;;;2.10;90.20;;;;;;5031837;28;20132;-64
2021/01/03 10:26:47;;;;;;;16.98;12.82;;;2.20;90.10;;;;;;5021678;28;20034;-63
2021/01/03 10:29:14;;;;;;;14.27;12.35;;;2.10;90.20;;;;;;5031304;28;20049;-64
2021/01/03 10:31:49;;;;;;;16.20;12.88;;;2.10;90.30;;;;;;5027345;28;20088;-63
2021/01/03 10:34:17;;;;;;;14.50;11.75;;;2.10;90.10;;;;;;5030916;28;20041;-64
2021/01/03 10:36:43;;;;;;;13.98;12.10;;;2.00;90.40;;;;;;5031395;28;20038;-62
2021/01/03 10:39:11;;;;;;;15.45;12.40;;;2.10;90.30;;;;;;5038514;28;20092;-63
2021/01/03 10:41:38;;;;;;;14.48;12.32;;;2.20;90.00;;;;;;5025614;28;20468;-64
2021/01/03 10:44:06;;;;;;;16.23;12.45;;;2.10;89.70;;;;;;5027136;28;20042;-62
2021/01/03 10:46:32;;;;;;;17.23;12.00;;;2.10;90.20;;;;;;5027006;28;20064;-63
2021/01/03 10:48:58;;;;;;;17.48;12.73;;;2.10;90.10;;;;;;5033907;28;20091;-64
2021/01/03 10:51:35;;;;;;;21.27;14.32;;;2.10;90.20;;;;;;5033616;28;20042;-64
2021/01/03 10:54:09;;;;;;;17.05;12.35;;;2.10;90.00;;;;;;5033774;28;20037;-64
2021/01/03 10:56:35;;;;;;;14.32;12.10;;;2.10;90.00;;;;;;5033411;28;20496;-64
2021/01/03 10:59:02;;;;;;;21.48;15.00;;;2.30;89.80;;;;;;5033613;28;20115;-63
2021/01/03 11:01:28;;;;;;;16.27;12.98;;;2.20;89.90;;;;;;5031522;28;20412;-64
2021/01/03 11:03:53;;;;;;;18.05;12.65;;;2.20;90.00;;;;;;5020167;28;20246;-62
2021/01/03 11:06:19;;;;;;;15.85;12.32;;;2.20;89.80;;;;;;5032297;28;20034;-63
2021/01/03 11:08:45;;;;;;;16.55;13.45;;;2.10;90.10;;;;;;5033119;28;20476;-63
2021/01/03 11:11:17;;;;;;;18.42;13.43;;;2.20;90.00;;;;;;5033202;28;20489;-63
2021/01/03 11:13:46;;;;;;;16.65;12.35;;;2.20;90.10;;;;;;5033450;28;20459;-62
2021/01/03 11:16:11;;;;;;;18.48;13.50;;;2.20;90.30;;;;;;5033359;28;20037;-64
2021/01/03 11:18:37;;;;;;;17.20;13.23;;;2.30;90.60;;;;;;5032663;28;20060;-64
2021/01/03 11:21:03;;;;;;;17.60;13.57;;;2.40;90.30;;;;;;5034370;28;20111;-63
2021/01/03 11:23:29;;;;;;;19.33;14.88;;;2.50;89.40;;;;;;5032265;28;20142;-62
2021/01/03 11:25:55;;;;;;;20.50;14.35;;;2.60;88.70;;;;;;5032866;28;20029;-61
2021/01/03 11:28:22;;;;;;;17.65;14.35;;;2.50;89.20;;;;;;5026397;28;20396;-61
2021/01/03 11:30:50;;;;;;;16.92;13.75;;;2.50;89.30;;;;;;5032038;28;20033;-62
2021/01/03 11:33:16;;;;;;;15.55;12.98;;;2.50;89.00;;;;;;5017512;28;20040;-62
2021/01/03 11:35:41;;;;;;;19.02;14.32;;;2.40;89.50;;;;;;5019485;28;20041;-61
2021/01/03 11:38:09;;;;;;;15.95;13.45;;;2.50;90.00;;;;;;5030705;28;20505;-62
2021/01/03 11:40:35;;;;;;;17.60;13.15;;;2.50;89.60;;;;;;5025551;28;20030;-60
2021/01/03 11:43:00;;;;;;;16.02;12.30;;;2.50;88.70;;;;;;5012662;28;20507;-62
2021/01/03 11:45:28;;;;;;;14.68;12.25;;;2.30;89.30;;;;;;5027790;28;20099;-62
2021/01/03 11:47:57;;;;;;;13.10;10.85;;;2.30;89.50;;;;;;5032820;28;20116;-60
2021/01/03 11:50:24;;;;;;;13.82;11.05;;;2.30;89.30;;;;;;5034309;28;20049;-63
2021/01/03 11:52:50;;;;;;;15.50;11.88;;;2.40;89.00;;;;;;5039609;28;20030;-62
2021/01/03 11:55:18;;;;;;;16.10;12.43;;;2.30;89.30;;;;;;5032880;28;20033;-63
2021/01/03 11:57:45;;;;;;;13.57;11.38;;;2.30;90.00;;;;;;5034795;28;20040;-62
2021/01/03 12:00:13;;;;;;;14.38;11.82;;;2.20;89.90;;;;;;5033980;28;20554;-63
2021/01/03 12:02:40;;;;;;;16.17;12.35;;;2.30;89.40;;;;;;5032691;28;20029;-65
2021/01/03 12:05:07;;;;;;;15.40;12.55;;;2.20;89.70;;;;;;5032147;28;20484;-65
2021/01/03 12:07:33;;;;;;;14.20;11.98;;;2.30;90.00;;;;;;5032311;28;20052;-64
2021/01/03 12:09:58;;;;;;;14.40;11.77;;;2.30;89.70;;;;;;5000988;28;20034;-64
2021/01/03 12:12:24;;;;;;;15.27;12.55;;;2.40;89.20;;;;;;5035128;28;20447;-64
2021/01/03 12:14:50;;;;;;;15.43;11.63;;;2.40;89.70;;;;;;5031689;28;20037;-63
2021/01/03 12:17:18;;;;;;;18.38;13.90;;;2.40;88.90;;;;;;5031120;28;20084;-63
2021/01/03 12:19:45;;;;;;;17.73;12.57;;;2.40;88.80;;;;;;5055160;22;20088;-63
2021/01/03 12:22:11;;;;;;;17.73;13.75;;;2.30;89.10;;;;;;5015548;28;20115;-63
2021/01/03 12:24:37;;;;;;;15.73;12.85;;;2.30;89.80;;;;;;5021749;28;20296;-63
2021/01/03 12:27:04;;;;;;;16.83;13.43;;;2.30;89.30;;;;;;5020048;28;20034;-62
2021/01/03 12:29:30;;;;;;;14.85;13.02;;;2.30;89.30;;;;;;5044274;28;20106;-64
2021/01/03 12:31:59;;;;;;;13.85;11.95;;;2.20;89.40;;;;;;5021845;28;20038;-63
2021/01/03 12:34:27;;;;;;;16.52;13.23;;;2.20;90.00;;;;;;5001545;28;20429;-61
2021/01/03 12:37:02;;;;;;;18.05;14.57;;;2.20;90.00;;;;;;5031703;28;20103;-61
2021/01/03 12:39:27;;;;;;;15.98;12.75;;;2.20;90.00;;;;;;5028692;28;20033;-62
2021/01/03 12:41:53;;;;;;;16.42;13.30;;;2.20;90.00;;;;;;5009782;28;20041;-61
2021/01/03 12:44:19;;;;;;;18.65;12.88;;;2.20;90.20;;;;;;5017032;28;20029;-61
2021/01/03 12:46:44;;;;;;;21.73;15.95;;;2.20;90.00;;;;;;4981010;28;20034;-62
2021/01/03 12:49:11;;;;;;;17.48;13.88;;;2.10;90.30;;;;;;5009319;28;20395;-62
2021/01/03 12:51:37;;;;;;;19.50;13.52;;;2.10;90.40;;;;;;5031166;28;20037;-62
2021/01/03 12:54:03;;;;;;;16.20;12.30;;;2.20;90.20;;;;;;5031384;28;20045;-62
2021/01/03 12:56:30;;;;;;;13.90;11.50;;;2.20;90.10;;;;;;5031351;28;20034;-62
2021/01/03 12:59:00;;;;;;;15.73;12.13;;;2.20;90.10;;;;;;5032871;28;20056;-62
2021/01/03 13:01:33;;;;;;;16.35;13.15;;;2.20;89.90;;;;;;5035578;28;20025;-63